East Weston, Colorado
Current Conditions -  °F | °C
As of 8:51 PM on Friday 24 Oct 2014 (Local Time) from KVTP Reporting Station
Clear Clear  
Wind Chill: 52°   Ceiling: Unl
Heat Index: 52°   Visibility: 10mi
Dew Point: 14°   Wind: 7mph
Humidity: 22%   Direction: 190°S
Pressure: 30.54"   Gusts: NA
Location:  37.1566°N, 104.956°W
Report Text: KVTP 250251Z AUTO 19006KT 10SM CLR 11/M10 A3054 RMK AO2
Loading
Personal Weather Stations






























Interactive Weather Map
Tropical Storm Tracking
New forecast layout! Learn more

10-Day Weather Forecast

Advertisements
Track Severe Weather on mobile